sensor_id;sensor_type;location;lat;lon;timestamp;P1;durP1;ratioP1;P2;durP2;ratioP2
72319;SDS011;60269;52.502;16.732;2024-03-17T00:01:43;10.60;;;1.20;;
72319;SDS011;60269;52.502;16.732;2024-03-17T00:05:14;8.83;;;0.90;;
72319;SDS011;60269;52.502;16.732;2024-03-17T00:08:45;7.13;;;0.80;;
72319;SDS011;60269;52.502;16.732;2024-03-17T00:12:16;13.00;;;1.13;;
72319;SDS011;60269;52.502;16.732;2024-03-17T00:15:48;7.72;;;0.65;;
72319;SDS011;60269;52.502;16.732;2024-03-17T00:19:19;8.30;;;1.38;;
72319;SDS011;60269;52.502;16.732;2024-03-17T00:22:52;7.55;;;1.08;;
72319;SDS011;60269;52.502;16.732;2024-03-17T00:26:23;7.73;;;1.37;;
72319;SDS011;60269;52.502;16.732;2024-03-17T00:29:54;13.45;;;1.38;;
72319;SDS011;60269;52.502;16.732;2024-03-17T00:33:25;6.77;;;0.80;;
72319;SDS011;60269;52.502;16.732;2024-03-17T00:36:56;9.45;;;0.70;;
72319;SDS011;60269;52.502;16.732;2024-03-17T00:40:27;11.47;;;1.20;;
72319;SDS011;60269;52.502;16.732;2024-03-17T00:43:58;11.73;;;1.17;;
72319;SDS011;60269;52.502;16.732;2024-03-17T00:47:31;7.63;;;1.15;;
72319;SDS011;60269;52.502;16.732;2024-03-17T00:51:02;6.65;;;1.02;;
72319;SDS011;60269;52.502;16.732;2024-03-17T00:54:33;9.53;;;1.00;;
72319;SDS011;60269;52.502;16.732;2024-03-17T00:58:04;7.60;;;1.35;;
72319;SDS011;60269;52.502;16.732;2024-03-17T01:01:35;8.77;;;0.87;;
72319;SDS011;60269;52.502;16.732;2024-03-17T01:05:06;7.20;;;0.95;;
72319;SDS011;60269;52.502;16.732;2024-03-17T01:08:38;5.35;;;0.30;;
72319;SDS011;60269;52.502;16.732;2024-03-17T01:12:09;6.37;;;0.53;;
72319;SDS011;60269;52.502;16.732;2024-03-17T01:15:39;8.73;;;0.80;;
72319;SDS011;60269;52.502;16.732;2024-03-17T01:19:11;9.13;;;0.80;;
72319;SDS011;60269;52.502;16.732;2024-03-17T01:22:42;6.30;;;0.47;;
72319;SDS011;60269;52.502;16.732;2024-03-17T01:26:12;5.53;;;0.80;;
72319;SDS011;60269;52.502;16.732;2024-03-17T01:29:43;8.82;;;0.70;;
72319;SDS011;60269;52.502;16.732;2024-03-17T01:33:14;7.00;;;0.77;;
72319;SDS011;60269;52.502;16.732;2024-03-17T01:36:46;7.72;;;1.00;;
72319;SDS011;60269;52.502;16.732;2024-03-17T01:40:17;7.72;;;0.80;;
72319;SDS011;60269;52.502;16.732;2024-03-17T01:43:48;8.50;;;0.80;;
72319;SDS011;60269;52.502;16.732;2024-03-17T01:47:19;8.73;;;1.05;;
72319;SDS011;60269;52.502;16.732;2024-03-17T01:50:51;9.38;;;1.15;;
72319;SDS011;60269;52.502;16.732;2024-03-17T01:54:23;10.18;;;1.65;;
72319;SDS011;60269;52.502;16.732;2024-03-17T01:57:57;8.63;;;1.23;;
72319;SDS011;60269;52.502;16.732;2024-03-17T02:01:28;10.38;;;1.65;;
72319;SDS011;60269;52.502;16.732;2024-03-17T02:04:59;7.20;;;0.50;;
72319;SDS011;60269;52.502;16.732;2024-03-17T02:08:45;10.38;;;1.05;;
72319;SDS011;60269;52.502;16.732;2024-03-17T02:12:23;11.38;;;1.10;;
72319;SDS011;60269;52.502;16.732;2024-03-17T02:15:56;6.70;;;0.77;;
72319;SDS011;60269;52.502;16.732;2024-03-17T02:19:27;9.20;;;0.77;;
72319;SDS011;60269;52.502;16.732;2024-03-17T02:22:58;13.68;;;1.13;;
72319;SDS011;60269;52.502;16.732;2024-03-17T02:26:29;11.33;;;1.60;;
72319;SDS011;60269;52.502;16.732;2024-03-17T02:30:00;7.63;;;0.73;;
72319;SDS011;60269;52.502;16.732;2024-03-17T02:33:30;7.50;;;0.63;;
72319;SDS011;60269;52.502;16.732;2024-03-17T02:37:02;5.80;;;0.60;;
72319;SDS011;60269;52.502;16.732;2024-03-17T02:40:34;6.90;;;0.80;;
72319;SDS011;60269;52.502;16.732;2024-03-17T02:44:05;6.07;;;0.70;;
72319;SDS011;60269;52.502;16.732;2024-03-17T02:47:36;16.65;;;0.85;;
72319;SDS011;60269;52.502;16.732;2024-03-17T02:51:07;9.33;;;1.63;;
72319;SDS011;60269;52.502;16.732;2024-03-17T02:54:38;5.78;;;0.70;;
72319;SDS011;60269;52.502;16.732;2024-03-17T02:58:10;5.35;;;0.75;;
72319;SDS011;60269;52.502;16.732;2024-03-17T03:01:42;10.83;;;1.03;;
72319;SDS011;60269;52.502;16.732;2024-03-17T03:05:13;6.60;;;0.70;;
72319;SDS011;60269;52.502;16.732;2024-03-17T03:08:44;6.03;;;0.43;;
72319;SDS011;60269;52.502;16.732;2024-03-17T03:12:18;11.73;;;0.68;;
72319;SDS011;60269;52.502;16.732;2024-03-17T03:15:49;7.57;;;0.50;;
72319;SDS011;60269;52.502;16.732;2024-03-17T03:19:20;10.30;;;0.65;;
72319;SDS011;60269;52.502;16.732;2024-03-17T03:22:51;7.97;;;0.60;;
72319;SDS011;60269;52.502;16.732;2024-03-17T03:26:22;4.07;;;0.57;;
72319;SDS011;60269;52.502;16.732;2024-03-17T03:29:54;3.47;;;0.50;;
72319;SDS011;60269;52.502;16.732;2024-03-17T03:33:26;5.50;;;0.43;;
72319;SDS011;60269;52.502;16.732;2024-03-17T03:36:58;6.97;;;0.65;;
72319;SDS011;60269;52.502;16.732;2024-03-17T03:40:29;6.17;;;0.30;;
72319;SDS011;60269;52.502;16.732;2024-03-17T03:43:59;7.68;;;0.70;;
72319;SDS011;60269;52.502;16.732;2024-03-17T03:47:30;5.57;;;0.53;;
72319;SDS011;60269;52.502;16.732;2024-03-17T03:51:07;10.93;;;0.73;;
72319;SDS011;60269;52.502;16.732;2024-03-17T03:54:40;7.80;;;0.52;;
72319;SDS011;60269;52.502;16.732;2024-03-17T03:58:11;12.07;;;0.50;;
72319;SDS011;60269;52.502;16.732;2024-03-17T04:01:43;8.23;;;0.50;;
72319;SDS011;60269;52.502;16.732;2024-03-17T04:05:14;7.57;;;0.55;;
72319;SDS011;60269;52.502;16.732;2024-03-17T04:08:45;6.60;;;0.60;;
72319;SDS011;60269;52.502;16.732;2024-03-17T04:12:15;3.80;;;0.50;;
72319;SDS011;60269;52.502;16.732;2024-03-17T04:15:46;4.23;;;0.43;;
72319;SDS011;60269;52.502;16.732;2024-03-17T04:19:17;4.97;;;0.57;;
72319;SDS011;60269;52.502;16.732;2024-03-17T04:22:48;5.32;;;0.57;;
72319;SDS011;60269;52.502;16.732;2024-03-17T04:26:19;7.33;;;0.50;;
72319;SDS011;60269;52.502;16.732;2024-03-17T04:29:52;6.95;;;0.30;;
72319;SDS011;60269;52.502;16.732;2024-03-17T04:33:24;9.80;;;0.38;;
72319;SDS011;60269;52.502;16.732;2024-03-17T04:36:55;9.10;;;0.27;;
72319;SDS011;60269;52.502;16.732;2024-03-17T04:40:26;4.63;;;0.30;;
72319;SDS011;60269;52.502;16.732;2024-03-17T04:43:56;5.97;;;0.43;;
72319;SDS011;60269;52.502;16.732;2024-03-17T04:47:27;2.83;;;0.30;;
72319;SDS011;60269;52.502;16.732;2024-03-17T04:50:59;4.45;;;0.50;;
72319;SDS011;60269;52.502;16.732;2024-03-17T04:54:31;5.57;;;0.88;;
72319;SDS011;60269;52.502;16.732;2024-03-17T04:58:02;8.82;;;0.47;;
72319;SDS011;60269;52.502;16.732;2024-03-17T05:01:33;8.50;;;0.80;;
72319;SDS011;60269;52.502;16.732;2024-03-17T05:05:07;7.35;;;0.50;;
72319;SDS011;60269;52.502;16.732;2024-03-17T05:08:41;4.87;;;0.43;;
72319;SDS011;60269;52.502;16.732;2024-03-17T05:12:11;4.55;;;0.52;;
72319;SDS011;60269;52.502;16.732;2024-03-17T05:15:43;8.70;;;0.30;;
72319;SDS011;60269;52.502;16.732;2024-03-17T05:19:13;4.60;;;0.38;;
72319;SDS011;60269;52.502;16.732;2024-03-17T05:22:44;10.60;;;1.03;;
72319;SDS011;60269;52.502;16.732;2024-03-17T05:26:17;6.47;;;0.60;;
72319;SDS011;60269;52.502;16.732;2024-03-17T05:29:48;7.72;;;0.45;;
72319;SDS011;60269;52.502;16.732;2024-03-17T05:33:21;5.68;;;0.38;;
72319;SDS011;60269;52.502;16.732;2024-03-17T05:36:52;6.90;;;0.40;;
72319;SDS011;60269;52.502;16.732;2024-03-17T05:40:26;7.65;;;0.68;;
72319;SDS011;60269;52.502;16.732;2024-03-17T05:43:57;4.73;;;0.40;;
72319;SDS011;60269;52.502;16.732;2024-03-17T05:47:29;10.93;;;0.90;;
72319;SDS011;60269;52.502;16.732;2024-03-17T05:51:03;5.20;;;0.47;;
72319;SDS011;60269;52.502;16.732;2024-03-17T05:54:38;6.43;;;0.60;;
72319;SDS011;60269;52.502;16.732;2024-03-17T05:58:09;4.30;;;0.30;;
72319;SDS011;60269;52.502;16.732;2024-03-17T06:01:41;6.68;;;0.57;;
72319;SDS011;60269;52.502;16.732;2024-03-17T06:05:12;7.00;;;0.60;;
72319;SDS011;60269;52.502;16.732;2024-03-17T06:08:44;6.47;;;0.83;;
72319;SDS011;60269;52.502;16.732;2024-03-17T06:12:15;4.05;;;0.55;;
72319;SDS011;60269;52.502;16.732;2024-03-17T06:15:46;6.77;;;1.33;;
72319;SDS011;60269;52.502;16.732;2024-03-17T06:19:17;5.68;;;0.77;;
72319;SDS011;60269;52.502;16.732;2024-03-17T06:22:49;8.48;;;0.95;;
72319;SDS011;60269;52.502;16.732;2024-03-17T06:26:19;9.23;;;0.80;;
72319;SDS011;60269;52.502;16.732;2024-03-17T06:29:51;4.93;;;0.67;;
72319;SDS011;60269;52.502;16.732;2024-03-17T06:33:22;8.82;;;0.65;;
72319;SDS011;60269;52.502;16.732;2024-03-17T06:36:53;7.03;;;0.77;;
72319;SDS011;60269;52.502;16.732;2024-03-17T06:40:24;5.53;;;1.10;;
72319;SDS011;60269;52.502;16.732;2024-03-17T06:43:55;3.90;;;0.47;;
72319;SDS011;60269;52.502;16.732;2024-03-17T06:47:26;15.57;;;1.80;;
72319;SDS011;60269;52.502;16.732;2024-03-17T06:50:57;4.95;;;1.48;;
72319;SDS011;60269;52.502;16.732;2024-03-17T06:54:28;7.85;;;0.73;;
72319;SDS011;60269;52.502;16.732;2024-03-17T06:57:59;11.23;;;0.63;;
72319;SDS011;60269;52.502;16.732;2024-03-17T07:01:29;6.28;;;0.50;;
72319;SDS011;60269;52.502;16.732;2024-03-17T07:05:00;6.00;;;0.57;;
72319;SDS011;60269;52.502;16.732;2024-03-17T07:08:32;8.75;;;0.80;;
72319;SDS011;60269;52.502;16.732;2024-03-17T07:12:03;4.93;;;0.70;;
72319;SDS011;60269;52.502;16.732;2024-03-17T07:15:34;7.00;;;0.60;;
72319;SDS011;60269;52.502;16.732;2024-03-17T07:19:05;6.57;;;0.60;;
72319;SDS011;60269;52.502;16.732;2024-03-17T07:22:36;5.38;;;0.70;;
72319;SDS011;60269;52.502;16.732;2024-03-17T07:26:07;8.37;;;0.87;;
72319;SDS011;60269;52.502;16.732;2024-03-17T07:29:40;5.65;;;1.10;;
72319;SDS011;60269;52.502;16.732;2024-03-17T07:33:11;7.63;;;1.23;;
72319;SDS011;60269;52.502;16.732;2024-03-17T07:36:41;4.55;;;0.90;;
72319;SDS011;60269;52.502;16.732;2024-03-17T07:40:12;6.03;;;1.03;;
72319;SDS011;60269;52.502;16.732;2024-03-17T07:43:43;7.43;;;1.20;;
72319;SDS011;60269;52.502;16.732;2024-03-17T07:47:14;6.38;;;0.90;;
72319;SDS011;60269;52.502;16.732;2024-03-17T07:50:53;8.68;;;1.25;;
72319;SDS011;60269;52.502;16.732;2024-03-17T07:54:24;6.83;;;1.30;;
72319;SDS011;60269;52.502;16.732;2024-03-17T07:57:55;7.63;;;1.40;;
72319;SDS011;60269;52.502;16.732;2024-03-17T08:01:26;7.37;;;1.57;;
72319;SDS011;60269;52.502;16.732;2024-03-17T08:04:57;6.55;;;1.38;;
72319;SDS011;60269;52.502;16.732;2024-03-17T08:08:28;5.32;;;0.85;;
72319;SDS011;60269;52.502;16.732;2024-03-17T08:11:59;6.47;;;1.10;;
72319;SDS011;60269;52.502;16.732;2024-03-17T08:15:30;9.95;;;1.52;;
72319;SDS011;60269;52.502;16.732;2024-03-17T08:19:01;6.27;;;1.13;;
72319;SDS011;60269;52.502;16.732;2024-03-17T08:22:32;7.40;;;1.60;;
72319;SDS011;60269;52.502;16.732;2024-03-17T08:26:02;8.38;;;1.40;;
72319;SDS011;60269;52.502;16.732;2024-03-17T08:29:34;7.70;;;2.03;;
72319;SDS011;60269;52.502;16.732;2024-03-17T08:33:05;5.50;;;1.25;;
72319;SDS011;60269;52.502;16.732;2024-03-17T08:36:38;5.45;;;1.17;;
72319;SDS011;60269;52.502;16.732;2024-03-17T08:40:09;6.00;;;0.83;;
72319;SDS011;60269;52.502;16.732;2024-03-17T08:43:44;8.73;;;1.70;;
72319;SDS011;60269;52.502;16.732;2024-03-17T08:47:15;8.52;;;1.02;;
72319;SDS011;60269;52.502;16.732;2024-03-17T08:50:51;5.60;;;1.27;;
72319;SDS011;60269;52.502;16.732;2024-03-17T08:54:23;5.95;;;1.30;;
72319;SDS011;60269;52.502;16.732;2024-03-17T08:57:54;4.83;;;0.90;;
72319;SDS011;60269;52.502;16.732;2024-03-17T09:01:25;5.00;;;0.77;;
72319;SDS011;60269;52.502;16.732;2024-03-17T09:04:57;6.60;;;1.38;;
72319;SDS011;60269;52.502;16.732;2024-03-17T09:08:28;7.27;;;2.03;;
72319;SDS011;60269;52.502;16.732;2024-03-17T09:11:59;5.28;;;1.33;;
72319;SDS011;60269;52.502;16.732;2024-03-17T09:15:30;6.05;;;1.50;;
72319;SDS011;60269;52.502;16.732;2024-03-17T09:19:01;4.20;;;1.20;;
72319;SDS011;60269;52.502;16.732;2024-03-17T09:22:32;2.67;;;0.45;;
72319;SDS011;60269;52.502;16.732;2024-03-17T09:26:06;2.77;;;0.50;;
72319;SDS011;60269;52.502;16.732;2024-03-17T09:29:46;5.20;;;1.25;;
72319;SDS011;60269;52.502;16.732;2024-03-17T09:33:24;4.37;;;1.30;;
72319;SDS011;60269;52.502;16.732;2024-03-17T09:36:57;4.53;;;1.02;;
72319;SDS011;60269;52.502;16.732;2024-03-17T09:40:28;4.00;;;0.93;;
72319;SDS011;60269;52.502;16.732;2024-03-17T09:43:58;4.50;;;1.23;;
72319;SDS011;60269;52.502;16.732;2024-03-17T09:47:29;3.95;;;0.70;;
72319;SDS011;60269;52.502;16.732;2024-03-17T09:51:01;4.00;;;0.77;;
72319;SDS011;60269;52.502;16.732;2024-03-17T09:54:33;2.37;;;0.50;;
72319;SDS011;60269;52.502;16.732;2024-03-17T09:58:04;3.33;;;0.57;;
72319;SDS011;60269;52.502;16.732;2024-03-17T10:01:35;3.50;;;0.40;;
72319;SDS011;60269;52.502;16.732;2024-03-17T10:05:06;5.53;;;0.65;;
72319;SDS011;60269;52.502;16.732;2024-03-17T10:08:52;2.55;;;0.70;;
72319;SDS011;60269;52.502;16.732;2024-03-17T10:12:25;2.15;;;0.57;;
72319;SDS011;60269;52.502;16.732;2024-03-17T10:15:57;3.37;;;0.70;;
72319;SDS011;60269;52.502;16.732;2024-03-17T10:19:28;4.10;;;0.82;;
72319;SDS011;60269;52.502;16.732;2024-03-17T10:23:00;3.20;;;0.90;;
72319;SDS011;60269;52.502;16.732;2024-03-17T10:26:32;5.93;;;0.93;;
72319;SDS011;60269;52.502;16.732;2024-03-17T10:30:09;4.15;;;0.45;;
72319;SDS011;60269;52.502;16.732;2024-03-17T10:34:00;4.03;;;0.82;;
72319;SDS011;60269;52.502;16.732;2024-03-17T10:37:31;3.67;;;1.10;;
72319;SDS011;60269;52.502;16.732;2024-03-17T10:41:03;5.07;;;0.95;;
72319;SDS011;60269;52.502;16.732;2024-03-17T10:44:34;6.65;;;1.40;;
72319;SDS011;60269;52.502;16.732;2024-03-17T10:48:07;6.33;;;1.90;;
72319;SDS011;60269;52.502;16.732;2024-03-17T10:51:39;5.72;;;1.45;;
72319;SDS011;60269;52.502;16.732;2024-03-17T10:55:19;5.05;;;1.30;;
72319;SDS011;60269;52.502;16.732;2024-03-17T10:58:53;8.50;;;2.20;;
72319;SDS011;60269;52.502;16.732;2024-03-17T11:02:27;5.53;;;1.30;;
72319;SDS011;60269;52.502;16.732;2024-03-17T11:06:01;6.78;;;1.75;;
72319;SDS011;60269;52.502;16.732;2024-03-17T11:09:35;7.28;;;1.88;;
72319;SDS011;60269;52.502;16.732;2024-03-17T11:13:06;6.57;;;1.83;;
72319;SDS011;60269;52.502;16.732;2024-03-17T11:16:53;8.18;;;2.20;;
72319;SDS011;60269;52.502;16.732;2024-03-17T11:20:25;7.93;;;2.23;;
72319;SDS011;60269;52.502;16.732;2024-03-17T11:24:00;8.45;;;2.72;;
72319;SDS011;60269;52.502;16.732;2024-03-17T11:27:41;7.90;;;2.55;;
72319;SDS011;60269;52.502;16.732;2024-03-17T11:35:14;6.30;;;2.10;;
72319;SDS011;60269;52.502;16.732;2024-03-17T11:42:31;5.63;;;0.90;;
72319;SDS011;60269;52.502;16.732;2024-03-17T11:46:05;6.55;;;1.70;;
72319;SDS011;60269;52.502;16.732;2024-03-17T11:49:41;7.00;;;1.65;;
72319;SDS011;60269;52.502;16.732;2024-03-17T11:53:14;5.33;;;1.00;;
72319;SDS011;60269;52.502;16.732;2024-03-17T11:56:47;4.63;;;0.70;;
72319;SDS011;60269;52.502;16.732;2024-03-17T12:00:23;4.80;;;0.55;;
72319;SDS011;60269;52.502;16.732;2024-03-17T12:03:55;4.05;;;0.90;;
72319;SDS011;60269;52.502;16.732;2024-03-17T12:07:27;3.00;;;0.60;;
72319;SDS011;60269;52.502;16.732;2024-03-17T12:11:00;2.78;;;0.50;;
72319;SDS011;60269;52.502;16.732;2024-03-17T12:14:32;4.60;;;0.52;;
72319;SDS011;60269;52.502;16.732;2024-03-17T12:18:03;1.00;;;0.20;;
72319;SDS011;60269;52.502;16.732;2024-03-17T12:21:34;2.45;;;0.30;;
72319;SDS011;60269;52.502;16.732;2024-03-17T12:25:06;3.30;;;0.30;;
72319;SDS011;60269;52.502;16.732;2024-03-17T12:28:48;2.20;;;0.30;;
72319;SDS011;60269;52.502;16.732;2024-03-17T12:32:24;1.50;;;0.30;;
72319;SDS011;60269;52.502;16.732;2024-03-17T12:35:56;2.60;;;0.40;;
72319;SDS011;60269;52.502;16.732;2024-03-17T12:39:31;2.43;;;0.30;;
72319;SDS011;60269;52.502;16.732;2024-03-17T12:43:03;2.85;;;0.40;;
72319;SDS011;60269;52.502;16.732;2024-03-17T12:46:36;1.95;;;0.32;;
72319;SDS011;60269;52.502;16.732;2024-03-17T12:50:11;2.92;;;0.50;;
72319;SDS011;60269;52.502;16.732;2024-03-17T12:53:45;2.80;;;0.40;;
72319;SDS011;60269;52.502;16.732;2024-03-17T12:57:16;2.30;;;0.30;;
72319;SDS011;60269;52.502;16.732;2024-03-17T13:01:22;1.90;;;0.30;;
72319;SDS011;60269;52.502;16.732;2024-03-17T13:09:07;1.20;;;0.40;;
72319;SDS011;60269;52.502;16.732;2024-03-17T13:13:03;1.88;;;0.55;;
72319;SDS011;60269;52.502;16.732;2024-03-17T13:17:14;4.50;;;0.60;;
72319;SDS011;60269;52.502;16.732;2024-03-17T13:20:47;2.85;;;0.40;;
72319;SDS011;60269;52.502;16.732;2024-03-17T13:24:20;2.03;;;0.40;;
72319;SDS011;60269;52.502;16.732;2024-03-17T13:27:51;2.27;;;0.40;;
72319;SDS011;60269;52.502;16.732;2024-03-17T13:31:23;2.93;;;0.40;;
72319;SDS011;60269;52.502;16.732;2024-03-17T13:34:54;2.30;;;0.30;;
72319;SDS011;60269;52.502;16.732;2024-03-17T13:38:25;1.63;;;0.50;;
72319;SDS011;60269;52.502;16.732;2024-03-17T13:41:56;4.03;;;0.70;;
72319;SDS011;60269;52.502;16.732;2024-03-17T13:45:28;4.65;;;1.00;;
72319;SDS011;60269;52.502;16.732;2024-03-17T13:49:06;2.80;;;0.50;;
72319;SDS011;60269;52.502;16.732;2024-03-17T13:52:39;2.33;;;0.35;;
72319;SDS011;60269;52.502;16.732;2024-03-17T13:56:10;3.10;;;0.30;;
72319;SDS011;60269;52.502;16.732;2024-03-17T13:59:43;1.35;;;0.30;;
72319;SDS011;60269;52.502;16.732;2024-03-17T14:03:14;0.93;;;0.20;;
72319;SDS011;60269;52.502;16.732;2024-03-17T14:06:45;1.75;;;0.40;;
72319;SDS011;60269;52.502;16.732;2024-03-17T14:10:19;2.83;;;0.50;;
72319;SDS011;60269;52.502;16.732;2024-03-17T14:13:50;1.75;;;0.50;;
72319;SDS011;60269;52.502;16.732;2024-03-17T14:17:21;1.60;;;0.40;;
72319;SDS011;60269;52.502;16.732;2024-03-17T14:20:52;1.20;;;0.30;;
72319;SDS011;60269;52.502;16.732;2024-03-17T14:24:23;1.58;;;0.20;;
72319;SDS011;60269;52.502;16.732;2024-03-17T14:27:54;1.33;;;0.30;;
72319;SDS011;60269;52.502;16.732;2024-03-17T14:31:25;3.27;;;0.40;;
72319;SDS011;60269;52.502;16.732;2024-03-17T14:34:57;2.75;;;0.40;;
72319;SDS011;60269;52.502;16.732;2024-03-17T14:38:27;1.35;;;0.30;;
72319;SDS011;60269;52.502;16.732;2024-03-17T14:41:58;1.63;;;0.30;;
72319;SDS011;60269;52.502;16.732;2024-03-17T14:45:30;2.75;;;0.50;;
72319;SDS011;60269;52.502;16.732;2024-03-17T14:49:01;3.75;;;0.40;;
72319;SDS011;60269;52.502;16.732;2024-03-17T14:52:32;0.90;;;0.20;;
72319;SDS011;60269;52.502;16.732;2024-03-17T14:56:03;2.08;;;0.40;;
72319;SDS011;60269;52.502;16.732;2024-03-17T14:59:34;2.53;;;0.55;;
72319;SDS011;60269;52.502;16.732;2024-03-17T15:03:05;2.70;;;0.40;;
72319;SDS011;60269;52.502;16.732;2024-03-17T15:06:38;5.50;;;0.50;;
72319;SDS011;60269;52.502;16.732;2024-03-17T15:10:10;2.20;;;0.30;;
72319;SDS011;60269;52.502;16.732;2024-03-17T15:13:43;1.45;;;0.30;;
72319;SDS011;60269;52.502;16.732;2024-03-17T15:17:14;1.77;;;0.40;;
72319;SDS011;60269;52.502;16.732;2024-03-17T15:20:51;1.67;;;0.30;;
72319;SDS011;60269;52.502;16.732;2024-03-17T15:24:23;2.10;;;0.37;;
72319;SDS011;60269;52.502;16.732;2024-03-17T15:27:54;3.65;;;0.45;;
72319;SDS011;60269;52.502;16.732;2024-03-17T15:31:25;2.63;;;0.30;;
72319;SDS011;60269;52.502;16.732;2024-03-17T15:34:55;4.13;;;0.40;;
72319;SDS011;60269;52.502;16.732;2024-03-17T15:38:33;2.88;;;0.30;;
72319;SDS011;60269;52.502;16.732;2024-03-17T15:42:08;2.13;;;0.40;;
72319;SDS011;60269;52.502;16.732;2024-03-17T15:45:43;2.03;;;0.40;;
72319;SDS011;60269;52.502;16.732;2024-03-17T15:49:14;2.90;;;0.52;;
72319;SDS011;60269;52.502;16.732;2024-03-17T15:52:45;6.22;;;0.90;;
72319;SDS011;60269;52.502;16.732;2024-03-17T15:56:16;4.43;;;1.00;;
72319;SDS011;60269;52.502;16.732;2024-03-17T15:59:47;4.20;;;0.70;;
72319;SDS011;60269;52.502;16.732;2024-03-17T16:03:18;3.20;;;0.50;;
72319;SDS011;60269;52.502;16.732;2024-03-17T16:06:53;3.07;;;0.37;;
72319;SDS011;60269;52.502;16.732;2024-03-17T16:10:25;3.60;;;0.40;;
72319;SDS011;60269;52.502;16.732;2024-03-17T16:13:59;4.88;;;1.08;;
72319;SDS011;60269;52.502;16.732;2024-03-17T16:17:31;13.23;;;3.00;;
72319;SDS011;60269;52.502;16.732;2024-03-17T16:21:04;3.47;;;0.60;;
72319;SDS011;60269;52.502;16.732;2024-03-17T16:24:37;3.25;;;0.60;;
72319;SDS011;60269;52.502;16.732;2024-03-17T16:28:12;3.53;;;0.60;;
72319;SDS011;60269;52.502;16.732;2024-03-17T16:31:43;6.23;;;0.73;;
72319;SDS011;60269;52.502;16.732;2024-03-17T16:35:14;3.95;;;0.93;;
72319;SDS011;60269;52.502;16.732;2024-03-17T16:38:46;6.05;;;0.60;;
72319;SDS011;60269;52.502;16.732;2024-03-17T16:42:17;4.33;;;0.87;;
72319;SDS011;60269;52.502;16.732;2024-03-17T16:45:52;6.45;;;0.70;;
72319;SDS011;60269;52.502;16.732;2024-03-17T16:49:34;3.17;;;0.55;;
72319;SDS011;60269;52.502;16.732;2024-03-17T16:53:06;3.57;;;0.70;;
72319;SDS011;60269;52.502;16.732;2024-03-17T16:56:37;2.78;;;0.47;;
72319;SDS011;60269;52.502;16.732;2024-03-17T17:00:08;5.82;;;1.42;;
72319;SDS011;60269;52.502;16.732;2024-03-17T17:03:47;8.60;;;1.50;;
72319;SDS011;60269;52.502;16.732;2024-03-17T17:07:18;7.85;;;1.98;;
72319;SDS011;60269;52.502;16.732;2024-03-17T17:10:49;5.93;;;1.27;;
72319;SDS011;60269;52.502;16.732;2024-03-17T17:14:20;5.20;;;1.23;;
72319;SDS011;60269;52.502;16.732;2024-03-17T17:17:56;5.57;;;1.10;;
72319;SDS011;60269;52.502;16.732;2024-03-17T17:21:28;4.85;;;0.85;;
72319;SDS011;60269;52.502;16.732;2024-03-17T17:24:59;6.20;;;1.00;;
72319;SDS011;60269;52.502;16.732;2024-03-17T17:28:30;4.55;;;0.60;;
72319;SDS011;60269;52.502;16.732;2024-03-17T17:32:01;6.57;;;1.15;;
72319;SDS011;60269;52.502;16.732;2024-03-17T17:35:37;3.97;;;0.67;;
72319;SDS011;60269;52.502;16.732;2024-03-17T17:39:08;6.00;;;1.35;;
72319;SDS011;60269;52.502;16.732;2024-03-17T17:42:39;5.10;;;1.08;;
72319;SDS011;60269;52.502;16.732;2024-03-17T17:46:11;7.57;;;1.90;;
72319;SDS011;60269;52.502;16.732;2024-03-17T17:49:43;5.40;;;1.15;;
72319;SDS011;60269;52.502;16.732;2024-03-17T17:53:14;6.00;;;1.05;;
72319;SDS011;60269;52.502;16.732;2024-03-17T17:56:45;4.70;;;1.00;;
72319;SDS011;60269;52.502;16.732;2024-03-17T18:00:17;4.47;;;0.70;;
72319;SDS011;60269;52.502;16.732;2024-03-17T18:03:48;4.45;;;0.98;;
72319;SDS011;60269;52.502;16.732;2024-03-17T18:07:20;8.27;;;1.73;;
72319;SDS011;60269;52.502;16.732;2024-03-17T18:10:51;6.80;;;1.63;;
72319;SDS011;60269;52.502;16.732;2024-03-17T18:14:25;5.65;;;1.50;;
72319;SDS011;60269;52.502;16.732;2024-03-17T18:17:56;7.05;;;1.10;;
72319;SDS011;60269;52.502;16.732;2024-03-17T18:21:27;5.30;;;0.90;;
72319;SDS011;60269;52.502;16.732;2024-03-17T18:24:58;6.68;;;1.60;;
72319;SDS011;60269;52.502;16.732;2024-03-17T18:28:29;6.43;;;1.15;;
72319;SDS011;60269;52.502;16.732;2024-03-17T18:32:00;5.50;;;1.10;;
72319;SDS011;60269;52.502;16.732;2024-03-17T18:35:32;4.75;;;0.90;;
72319;SDS011;60269;52.502;16.732;2024-03-17T18:39:05;7.43;;;1.27;;
72319;SDS011;60269;52.502;16.732;2024-03-17T18:42:36;4.15;;;0.75;;
72319;SDS011;60269;52.502;16.732;2024-03-17T18:46:13;4.18;;;0.80;;
72319;SDS011;60269;52.502;16.732;2024-03-17T18:49:46;7.07;;;1.60;;
72319;SDS011;60269;52.502;16.732;2024-03-17T18:53:19;6.85;;;1.10;;
72319;SDS011;60269;52.502;16.732;2024-03-17T18:56:50;5.72;;;1.08;;
72319;SDS011;60269;52.502;16.732;2024-03-17T19:00:21;4.80;;;1.13;;
72319;SDS011;60269;52.502;16.732;2024-03-17T19:03:52;5.85;;;0.98;;
72319;SDS011;60269;52.502;16.732;2024-03-17T19:07:23;8.00;;;1.00;;
72319;SDS011;60269;52.502;16.732;2024-03-17T19:10:56;5.38;;;0.77;;
72319;SDS011;60269;52.502;16.732;2024-03-17T19:14:27;2.63;;;0.47;;
72319;SDS011;60269;52.502;16.732;2024-03-17T19:17:58;4.63;;;0.80;;
72319;SDS011;60269;52.502;16.732;2024-03-17T19:21:32;5.05;;;0.93;;
72319;SDS011;60269;52.502;16.732;2024-03-17T19:25:04;5.88;;;1.55;;
72319;SDS011;60269;52.502;16.732;2024-03-17T19:28:41;8.83;;;1.90;;
72319;SDS011;60269;52.502;16.732;2024-03-17T19:32:12;6.35;;;1.60;;
72319;SDS011;60269;52.502;16.732;2024-03-17T19:35:43;5.35;;;0.95;;
72319;SDS011;60269;52.502;16.732;2024-03-17T19:39:13;5.03;;;1.00;;
72319;SDS011;60269;52.502;16.732;2024-03-17T19:42:47;3.83;;;1.00;;
72319;SDS011;60269;52.502;16.732;2024-03-17T19:46:18;4.70;;;1.10;;
72319;SDS011;60269;52.502;16.732;2024-03-17T19:49:51;3.43;;;0.70;;
72319;SDS011;60269;52.502;16.732;2024-03-17T19:53:22;3.40;;;0.30;;
72319;SDS011;60269;52.502;16.732;2024-03-17T19:56:53;4.13;;;0.50;;
72319;SDS011;60269;52.502;16.732;2024-03-17T20:00:24;4.30;;;0.70;;
72319;SDS011;60269;52.502;16.732;2024-03-17T20:03:55;4.50;;;0.88;;
72319;SDS011;60269;52.502;16.732;2024-03-17T20:07:31;5.83;;;1.17;;
72319;SDS011;60269;52.502;16.732;2024-03-17T20:11:03;5.47;;;1.08;;
72319;SDS011;60269;52.502;16.732;2024-03-17T20:14:35;3.40;;;0.57;;
72319;SDS011;60269;52.502;16.732;2024-03-17T20:18:07;4.20;;;0.80;;
72319;SDS011;60269;52.502;16.732;2024-03-17T20:21:39;3.45;;;0.68;;
72319;SDS011;60269;52.502;16.732;2024-03-17T20:25:10;2.28;;;0.40;;
72319;SDS011;60269;52.502;16.732;2024-03-17T20:28:43;3.73;;;0.60;;
72319;SDS011;60269;52.502;16.732;2024-03-17T20:32:14;4.93;;;1.00;;
72319;SDS011;60269;52.502;16.732;2024-03-17T20:35:45;3.15;;;0.60;;
72319;SDS011;60269;52.502;16.732;2024-03-17T20:39:16;4.65;;;1.10;;
72319;SDS011;60269;52.502;16.732;2024-03-17T20:42:50;3.73;;;0.70;;
72319;SDS011;60269;52.502;16.732;2024-03-17T20:46:24;4.72;;;0.90;;
72319;SDS011;60269;52.502;16.732;2024-03-17T20:49:57;4.38;;;0.60;;
72319;SDS011;60269;52.502;16.732;2024-03-17T20:53:29;3.43;;;0.50;;
72319;SDS011;60269;52.502;16.732;2024-03-17T20:57:00;3.08;;;0.40;;
72319;SDS011;60269;52.502;16.732;2024-03-17T21:00:33;2.08;;;0.40;;
72319;SDS011;60269;52.502;16.732;2024-03-17T21:04:09;5.40;;;0.60;;
72319;SDS011;60269;52.502;16.732;2024-03-17T21:07:40;3.40;;;0.70;;
72319;SDS011;60269;52.502;16.732;2024-03-17T21:11:10;3.28;;;0.75;;